sensor_id;sensor_type;location;lat;lon;timestamp;P1;durP1;ratioP1;P2;durP2;ratioP2
71671;SDS011;67659;45.554;11.812;2023-04-07T00:01:04;39.17;;;22.50;;
71671;SDS011;67659;45.554;11.812;2023-04-07T00:03:30;39.15;;;21.80;;
71671;SDS011;67659;45.554;11.812;2023-04-07T00:05:56;37.70;;;19.85;;
71671;SDS011;67659;45.554;11.812;2023-04-07T00:08:22;38.28;;;21.48;;
71671;SDS011;67659;45.554;11.812;2023-04-07T00:10:48;39.00;;;22.03;;
71671;SDS011;67659;45.554;11.812;2023-04-07T00:13:13;36.95;;;22.98;;
71671;SDS011;67659;45.554;11.812;2023-04-07T00:15:40;39.95;;;24.23;;
71671;SDS011;67659;45.554;11.812;2023-04-07T00:18:06;35.87;;;21.20;;
71671;SDS011;67659;45.554;11.812;2023-04-07T00:20:31;33.97;;;19.40;;
71671;SDS011;67659;45.554;11.812;2023-04-07T00:22:57;33.60;;;20.67;;
71671;SDS011;67659;45.554;11.812;2023-04-07T00:25:23;35.50;;;21.08;;
71671;SDS011;67659;45.554;11.812;2023-04-07T00:27:49;32.17;;;20.10;;
71671;SDS011;67659;45.554;11.812;2023-04-07T00:30:15;34.90;;;20.83;;
71671;SDS011;67659;45.554;11.812;2023-04-07T00:32:41;36.05;;;21.70;;
71671;SDS011;67659;45.554;11.812;2023-04-07T00:35:08;34.38;;;19.63;;
71671;SDS011;67659;45.554;11.812;2023-04-07T00:37:34;33.38;;;21.05;;
71671;SDS011;67659;45.554;11.812;2023-04-07T00:39:59;37.57;;;20.13;;
71671;SDS011;67659;45.554;11.812;2023-04-07T00:42:25;28.52;;;16.88;;
71671;SDS011;67659;45.554;11.812;2023-04-07T00:44:51;34.47;;;20.63;;
71671;SDS011;67659;45.554;11.812;2023-04-07T00:47:17;34.50;;;21.10;;
71671;SDS011;67659;45.554;11.812;2023-04-07T00:49:43;33.33;;;21.05;;
71671;SDS011;67659;45.554;11.812;2023-04-07T00:52:08;30.53;;;19.17;;
71671;SDS011;67659;45.554;11.812;2023-04-07T00:54:36;32.33;;;19.55;;
71671;SDS011;67659;45.554;11.812;2023-04-07T00:57:03;31.42;;;20.25;;
71671;SDS011;67659;45.554;11.812;2023-04-07T00:59:29;36.72;;;22.48;;
71671;SDS011;67659;45.554;11.812;2023-04-07T01:02:20;34.38;;;21.73;;
71671;SDS011;67659;45.554;11.812;2023-04-07T01:04:55;41.50;;;22.90;;
71671;SDS011;67659;45.554;11.812;2023-04-07T01:10:10;37.53;;;21.45;;
71671;SDS011;67659;45.554;11.812;2023-04-07T01:15:51;33.92;;;20.90;;
71671;SDS011;67659;45.554;11.812;2023-04-07T01:18:21;35.23;;;20.67;;
71671;SDS011;67659;45.554;11.812;2023-04-07T01:20:52;37.75;;;21.98;;
71671;SDS011;67659;45.554;11.812;2023-04-07T01:23:31;34.53;;;22.02;;
71671;SDS011;67659;45.554;11.812;2023-04-07T01:26:28;33.45;;;20.38;;
71671;SDS011;67659;45.554;11.812;2023-04-07T01:31:56;29.20;;;18.53;;
71671;SDS011;67659;45.554;11.812;2023-04-07T01:34:24;29.67;;;18.23;;
71671;SDS011;67659;45.554;11.812;2023-04-07T01:36:52;34.30;;;20.90;;
71671;SDS011;67659;45.554;11.812;2023-04-07T01:39:20;32.22;;;19.50;;
71671;SDS011;67659;45.554;11.812;2023-04-07T01:41:46;34.55;;;20.40;;
71671;SDS011;67659;45.554;11.812;2023-04-07T01:44:17;31.90;;;19.80;;
71671;SDS011;67659;45.554;11.812;2023-04-07T01:46:44;28.75;;;18.15;;
71671;SDS011;67659;45.554;11.812;2023-04-07T01:49:11;29.38;;;18.08;;
71671;SDS011;67659;45.554;11.812;2023-04-07T01:51:39;31.25;;;18.23;;
71671;SDS011;67659;45.554;11.812;2023-04-07T01:54:06;34.58;;;19.50;;
71671;SDS011;67659;45.554;11.812;2023-04-07T01:56:33;31.30;;;18.50;;
71671;SDS011;67659;45.554;11.812;2023-04-07T01:58:59;37.75;;;21.77;;
71671;SDS011;67659;45.554;11.812;2023-04-07T02:01:25;36.20;;;20.05;;
71671;SDS011;67659;45.554;11.812;2023-04-07T02:03:52;43.27;;;21.70;;
71671;SDS011;67659;45.554;11.812;2023-04-07T02:06:33;61.08;;;29.10;;
71671;SDS011;67659;45.554;11.812;2023-04-07T02:09:05;45.88;;;25.27;;
71671;SDS011;67659;45.554;11.812;2023-04-07T02:11:34;40.15;;;23.58;;
71671;SDS011;67659;45.554;11.812;2023-04-07T02:14:03;46.10;;;23.40;;
71671;SDS011;67659;45.554;11.812;2023-04-07T02:16:31;45.13;;;22.80;;
71671;SDS011;67659;45.554;11.812;2023-04-07T02:18:57;45.80;;;23.30;;
71671;SDS011;67659;45.554;11.812;2023-04-07T02:21:24;43.63;;;22.48;;
71671;SDS011;67659;45.554;11.812;2023-04-07T02:23:51;43.85;;;23.60;;
71671;SDS011;67659;45.554;11.812;2023-04-07T02:26:17;43.30;;;22.17;;
71671;SDS011;67659;45.554;11.812;2023-04-07T02:28:43;41.03;;;21.80;;
71671;SDS011;67659;45.554;11.812;2023-04-07T02:31:09;38.35;;;22.33;;
71671;SDS011;67659;45.554;11.812;2023-04-07T02:33:37;43.72;;;24.52;;
71671;SDS011;67659;45.554;11.812;2023-04-07T02:36:03;75.80;;;34.97;;
71671;SDS011;67659;45.554;11.812;2023-04-07T02:38:30;66.38;;;30.05;;
71671;SDS011;67659;45.554;11.812;2023-04-07T02:40:56;53.10;;;26.10;;
71671;SDS011;67659;45.554;11.812;2023-04-07T02:43:23;63.38;;;29.17;;
71671;SDS011;67659;45.554;11.812;2023-04-07T02:45:49;58.27;;;28.17;;
71671;SDS011;67659;45.554;11.812;2023-04-07T02:48:15;48.97;;;25.17;;
71671;SDS011;67659;45.554;11.812;2023-04-07T02:50:41;56.40;;;26.20;;
71671;SDS011;67659;45.554;11.812;2023-04-07T02:53:07;42.70;;;23.93;;
71671;SDS011;67659;45.554;11.812;2023-04-07T02:55:33;48.93;;;23.10;;
71671;SDS011;67659;45.554;11.812;2023-04-07T02:57:58;44.65;;;22.13;;
71671;SDS011;67659;45.554;11.812;2023-04-07T03:00:24;46.53;;;23.90;;
71671;SDS011;67659;45.554;11.812;2023-04-07T03:02:50;40.70;;;21.40;;
71671;SDS011;67659;45.554;11.812;2023-04-07T03:05:16;39.65;;;21.13;;
71671;SDS011;67659;45.554;11.812;2023-04-07T03:07:42;40.47;;;22.47;;
71671;SDS011;67659;45.554;11.812;2023-04-07T03:10:11;39.72;;;22.02;;
71671;SDS011;67659;45.554;11.812;2023-04-07T03:12:37;38.97;;;22.27;;
71671;SDS011;67659;45.554;11.812;2023-04-07T03:15:02;38.50;;;22.93;;
71671;SDS011;67659;45.554;11.812;2023-04-07T03:17:28;39.70;;;19.85;;
71671;SDS011;67659;45.554;11.812;2023-04-07T03:19:55;41.30;;;21.38;;
71671;SDS011;67659;45.554;11.812;2023-04-07T03:22:21;46.65;;;24.42;;
71671;SDS011;67659;45.554;11.812;2023-04-07T03:24:47;47.83;;;25.60;;
71671;SDS011;67659;45.554;11.812;2023-04-07T03:27:12;37.80;;;23.02;;
71671;SDS011;67659;45.554;11.812;2023-04-07T03:29:38;40.23;;;22.10;;
71671;SDS011;67659;45.554;11.812;2023-04-07T03:32:04;39.90;;;22.27;;
71671;SDS011;67659;45.554;11.812;2023-04-07T03:34:30;39.83;;;22.23;;
71671;SDS011;67659;45.554;11.812;2023-04-07T03:36:55;38.67;;;22.70;;
71671;SDS011;67659;45.554;11.812;2023-04-07T03:39:21;38.27;;;21.37;;
71671;SDS011;67659;45.554;11.812;2023-04-07T03:41:47;36.97;;;20.77;;
71671;SDS011;67659;45.554;11.812;2023-04-07T03:44:12;38.00;;;21.17;;
71671;SDS011;67659;45.554;11.812;2023-04-07T03:46:38;42.13;;;21.25;;
71671;SDS011;67659;45.554;11.812;2023-04-07T03:49:04;39.70;;;22.25;;
71671;SDS011;67659;45.554;11.812;2023-04-07T03:51:31;36.72;;;22.20;;
71671;SDS011;67659;45.554;11.812;2023-04-07T03:53:58;39.37;;;21.63;;
71671;SDS011;67659;45.554;11.812;2023-04-07T03:56:23;38.95;;;22.20;;
71671;SDS011;67659;45.554;11.812;2023-04-07T03:58:49;42.85;;;23.70;;
71671;SDS011;67659;45.554;11.812;2023-04-07T04:01:15;46.87;;;23.77;;
71671;SDS011;67659;45.554;11.812;2023-04-07T04:03:41;45.67;;;24.55;;
71671;SDS011;67659;45.554;11.812;2023-04-07T04:06:07;47.72;;;24.17;;
71671;SDS011;67659;45.554;11.812;2023-04-07T04:08:32;41.47;;;22.23;;
71671;SDS011;67659;45.554;11.812;2023-04-07T04:10:58;43.28;;;22.55;;
71671;SDS011;67659;45.554;11.812;2023-04-07T04:13:24;40.80;;;22.53;;
71671;SDS011;67659;45.554;11.812;2023-04-07T04:15:50;34.55;;;19.70;;
71671;SDS011;67659;45.554;11.812;2023-04-07T04:18:16;37.55;;;21.98;;
71671;SDS011;67659;45.554;11.812;2023-04-07T04:20:42;36.93;;;20.80;;
71671;SDS011;67659;45.554;11.812;2023-04-07T04:23:07;39.40;;;21.58;;
71671;SDS011;67659;45.554;11.812;2023-04-07T04:25:33;38.83;;;22.20;;
71671;SDS011;67659;45.554;11.812;2023-04-07T04:27:59;38.08;;;20.83;;
71671;SDS011;67659;45.554;11.812;2023-04-07T04:30:26;36.90;;;19.75;;
71671;SDS011;67659;45.554;11.812;2023-04-07T04:32:51;34.80;;;20.50;;
71671;SDS011;67659;45.554;11.812;2023-04-07T04:35:17;33.83;;;20.38;;
71671;SDS011;67659;45.554;11.812;2023-04-07T04:37:43;32.50;;;18.30;;
71671;SDS011;67659;45.554;11.812;2023-04-07T04:40:09;40.03;;;20.30;;
71671;SDS011;67659;45.554;11.812;2023-04-07T04:42:35;39.28;;;20.08;;
71671;SDS011;67659;45.554;11.812;2023-04-07T04:45:01;40.83;;;20.80;;
71671;SDS011;67659;45.554;11.812;2023-04-07T04:47:27;43.53;;;21.02;;
71671;SDS011;67659;45.554;11.812;2023-04-07T04:49:52;41.30;;;20.93;;
71671;SDS011;67659;45.554;11.812;2023-04-07T04:52:18;35.22;;;20.58;;
71671;SDS011;67659;45.554;11.812;2023-04-07T04:54:44;41.53;;;21.60;;
71671;SDS011;67659;45.554;11.812;2023-04-07T04:57:09;35.50;;;21.55;;
71671;SDS011;67659;45.554;11.812;2023-04-07T04:59:35;39.90;;;22.70;;
71671;SDS011;67659;45.554;11.812;2023-04-07T05:02:01;40.17;;;22.05;;
71671;SDS011;67659;45.554;11.812;2023-04-07T05:04:26;37.20;;;21.87;;
71671;SDS011;67659;45.554;11.812;2023-04-07T05:06:52;37.05;;;20.77;;
71671;SDS011;67659;45.554;11.812;2023-04-07T05:09:18;36.60;;;20.30;;
71671;SDS011;67659;45.554;11.812;2023-04-07T05:11:43;39.83;;;22.55;;
71671;SDS011;67659;45.554;11.812;2023-04-07T05:14:09;36.27;;;21.67;;
71671;SDS011;67659;45.554;11.812;2023-04-07T05:16:35;40.70;;;22.30;;
71671;SDS011;67659;45.554;11.812;2023-04-07T05:19:01;36.87;;;21.23;;
71671;SDS011;67659;45.554;11.812;2023-04-07T05:21:26;42.83;;;22.87;;
71671;SDS011;67659;45.554;11.812;2023-04-07T05:23:52;36.40;;;20.73;;
71671;SDS011;67659;45.554;11.812;2023-04-07T05:26:18;33.17;;;19.40;;
71671;SDS011;67659;45.554;11.812;2023-04-07T05:28:43;35.10;;;20.25;;
71671;SDS011;67659;45.554;11.812;2023-04-07T05:31:09;34.40;;;20.77;;
71671;SDS011;67659;45.554;11.812;2023-04-07T05:33:35;48.47;;;20.35;;
71671;SDS011;67659;45.554;11.812;2023-04-07T05:36:01;34.83;;;19.67;;
71671;SDS011;67659;45.554;11.812;2023-04-07T05:38:26;38.15;;;19.73;;
71671;SDS011;67659;45.554;11.812;2023-04-07T05:40:52;39.87;;;19.50;;
71671;SDS011;67659;45.554;11.812;2023-04-07T05:43:18;40.45;;;20.23;;
71671;SDS011;67659;45.554;11.812;2023-04-07T05:45:43;38.23;;;20.00;;
71671;SDS011;67659;45.554;11.812;2023-04-07T05:48:09;38.63;;;20.88;;
71671;SDS011;67659;45.554;11.812;2023-04-07T05:50:35;42.38;;;21.45;;
71671;SDS011;67659;45.554;11.812;2023-04-07T05:53:01;62.13;;;26.60;;
71671;SDS011;67659;45.554;11.812;2023-04-07T05:55:27;51.75;;;24.67;;
71671;SDS011;67659;45.554;11.812;2023-04-07T05:57:52;47.07;;;22.30;;
71671;SDS011;67659;45.554;11.812;2023-04-07T06:00:18;53.53;;;24.15;;
71671;SDS011;67659;45.554;11.812;2023-04-07T06:02:44;51.58;;;25.50;;
71671;SDS011;67659;45.554;11.812;2023-04-07T06:05:10;56.63;;;26.30;;
71671;SDS011;67659;45.554;11.812;2023-04-07T06:07:36;60.43;;;28.43;;
71671;SDS011;67659;45.554;11.812;2023-04-07T06:10:02;50.88;;;26.27;;
71671;SDS011;67659;45.554;11.812;2023-04-07T06:12:28;57.83;;;26.25;;
71671;SDS011;67659;45.554;11.812;2023-04-07T06:14:54;57.83;;;27.17;;
71671;SDS011;67659;45.554;11.812;2023-04-07T06:17:20;53.38;;;26.17;;
71671;SDS011;67659;45.554;11.812;2023-04-07T06:19:47;60.17;;;26.60;;
71671;SDS011;67659;45.554;11.812;2023-04-07T06:22:12;50.05;;;25.55;;
71671;SDS011;67659;45.554;11.812;2023-04-07T06:24:38;41.00;;;23.83;;
71671;SDS011;67659;45.554;11.812;2023-04-07T06:27:04;43.83;;;23.13;;
71671;SDS011;67659;45.554;11.812;2023-04-07T06:29:31;43.65;;;23.02;;
71671;SDS011;67659;45.554;11.812;2023-04-07T06:31:58;42.13;;;23.80;;
71671;SDS011;67659;45.554;11.812;2023-04-07T06:34:24;42.47;;;23.17;;
71671;SDS011;67659;45.554;11.812;2023-04-07T06:36:51;32.25;;;20.70;;
71671;SDS011;67659;45.554;11.812;2023-04-07T06:39:16;34.28;;;20.45;;
71671;SDS011;67659;45.554;11.812;2023-04-07T06:41:43;33.40;;;20.50;;
71671;SDS011;67659;45.554;11.812;2023-04-07T06:44:08;32.23;;;20.13;;
71671;SDS011;67659;45.554;11.812;2023-04-07T06:46:37;30.27;;;18.52;;
71671;SDS011;67659;45.554;11.812;2023-04-07T06:49:03;31.48;;;19.33;;
71671;SDS011;67659;45.554;11.812;2023-04-07T06:51:29;27.53;;;18.10;;
71671;SDS011;67659;45.554;11.812;2023-04-07T06:53:56;29.08;;;18.30;;
71671;SDS011;67659;45.554;11.812;2023-04-07T06:56:22;27.00;;;17.30;;
71671;SDS011;67659;45.554;11.812;2023-04-07T06:58:47;27.67;;;18.33;;
71671;SDS011;67659;45.554;11.812;2023-04-07T07:01:13;26.70;;;17.90;;
71671;SDS011;67659;45.554;11.812;2023-04-07T07:03:39;28.30;;;18.25;;
71671;SDS011;67659;45.554;11.812;2023-04-07T07:06:05;27.47;;;17.80;;
71671;SDS011;67659;45.554;11.812;2023-04-07T07:08:31;32.15;;;17.33;;
71671;SDS011;67659;45.554;11.812;2023-04-07T07:10:57;26.13;;;16.23;;
71671;SDS011;67659;45.554;11.812;2023-04-07T07:14:42;11.63;;;6.70;;
71671;SDS011;67659;45.554;11.812;2023-04-07T07:17:08;9.67;;;5.97;;
71671;SDS011;67659;45.554;11.812;2023-04-07T07:19:33;14.00;;;6.93;;
71671;SDS011;67659;45.554;11.812;2023-04-07T07:22:00;9.97;;;6.47;;
71671;SDS011;67659;45.554;11.812;2023-04-07T07:24:28;10.77;;;6.23;;
71671;SDS011;67659;45.554;11.812;2023-04-07T07:26:55;11.75;;;6.03;;
71671;SDS011;67659;45.554;11.812;2023-04-07T07:29:21;10.95;;;5.75;;
71671;SDS011;67659;45.554;11.812;2023-04-07T07:31:47;10.93;;;6.40;;
71671;SDS011;67659;45.554;11.812;2023-04-07T07:34:13;11.13;;;6.13;;
71671;SDS011;67659;45.554;11.812;2023-04-07T07:36:39;10.90;;;6.50;;
71671;SDS011;67659;45.554;11.812;2023-04-07T07:39:05;15.95;;;6.63;;
71671;SDS011;67659;45.554;11.812;2023-04-07T07:41:31;11.80;;;6.00;;
71671;SDS011;67659;45.554;11.812;2023-04-07T07:43:56;11.60;;;6.53;;
71671;SDS011;67659;45.554;11.812;2023-04-07T07:46:22;13.27;;;5.40;;
71671;SDS011;67659;45.554;11.812;2023-04-07T07:48:50;10.95;;;5.68;;
71671;SDS011;67659;45.554;11.812;2023-04-07T07:51:16;11.18;;;5.90;;
71671;SDS011;67659;45.554;11.812;2023-04-07T07:53:42;16.27;;;6.50;;
71671;SDS011;67659;45.554;11.812;2023-04-07T07:56:11;11.57;;;6.32;;
71671;SDS011;67659;45.554;11.812;2023-04-07T07:58:37;25.33;;;7.20;;
71671;SDS011;67659;45.554;11.812;2023-04-07T08:01:02;16.23;;;6.85;;
71671;SDS011;67659;45.554;11.812;2023-04-07T08:03:28;34.55;;;7.78;;
71671;SDS011;67659;45.554;11.812;2023-04-07T08:05:54;14.77;;;6.50;;
71671;SDS011;67659;45.554;11.812;2023-04-07T08:08:20;13.02;;;6.35;;
71671;SDS011;67659;45.554;11.812;2023-04-07T08:10:46;14.50;;;6.63;;
71671;SDS011;67659;45.554;11.812;2023-04-07T08:13:12;17.08;;;7.35;;
71671;SDS011;67659;45.554;11.812;2023-04-07T08:15:38;18.95;;;7.60;;
71671;SDS011;67659;45.554;11.812;2023-04-07T08:18:04;16.67;;;7.97;;
71671;SDS011;67659;45.554;11.812;2023-04-07T08:20:31;17.63;;;8.00;;
71671;SDS011;67659;45.554;11.812;2023-04-07T08:22:57;19.98;;;7.20;;
71671;SDS011;67659;45.554;11.812;2023-04-07T08:25:24;15.73;;;7.07;;
71671;SDS011;67659;45.554;11.812;2023-04-07T08:27:50;20.77;;;7.10;;
71671;SDS011;67659;45.554;11.812;2023-04-07T08:30:16;15.67;;;7.17;;
71671;SDS011;67659;45.554;11.812;2023-04-07T08:32:43;13.15;;;6.70;;
71671;SDS011;67659;45.554;11.812;2023-04-07T08:35:09;13.80;;;6.80;;
71671;SDS011;67659;45.554;11.812;2023-04-07T08:37:36;14.73;;;6.57;;
71671;SDS011;67659;45.554;11.812;2023-04-07T08:40:03;13.35;;;6.43;;
71671;SDS011;67659;45.554;11.812;2023-04-07T08:42:31;11.93;;;6.00;;
71671;SDS011;67659;45.554;11.812;2023-04-07T08:45:06;10.52;;;5.72;;
71671;SDS011;67659;45.554;11.812;2023-04-07T08:47:34;13.90;;;5.80;;
71671;SDS011;67659;45.554;11.812;2023-04-07T08:50:02;10.73;;;5.68;;
71671;SDS011;67659;45.554;11.812;2023-04-07T08:52:39;12.63;;;5.65;;
71671;SDS011;67659;45.554;11.812;2023-04-07T08:55:11;10.63;;;5.63;;
71671;SDS011;67659;45.554;11.812;2023-04-07T08:57:37;11.77;;;5.50;;
71671;SDS011;67659;45.554;11.812;2023-04-07T09:00:04;11.57;;;5.30;;
71671;SDS011;67659;45.554;11.812;2023-04-07T09:02:33;12.85;;;5.10;;
71671;SDS011;67659;45.554;11.812;2023-04-07T09:05:03;11.18;;;5.10;;
71671;SDS011;67659;45.554;11.812;2023-04-07T09:07:31;9.68;;;4.97;;
71671;SDS011;67659;45.554;11.812;2023-04-07T09:09:58;11.57;;;5.30;;
71671;SDS011;67659;45.554;11.812;2023-04-07T09:12:24;10.67;;;4.93;;
71671;SDS011;67659;45.554;11.812;2023-04-07T09:14:51;10.38;;;4.90;;
71671;SDS011;67659;45.554;11.812;2023-04-07T09:17:18;11.35;;;5.00;;
71671;SDS011;67659;45.554;11.812;2023-04-07T09:19:44;9.65;;;4.72;;
71671;SDS011;67659;45.554;11.812;2023-04-07T09:22:11;10.10;;;5.00;;
71671;SDS011;67659;45.554;11.812;2023-04-07T09:24:39;10.97;;;4.90;;
71671;SDS011;67659;45.554;11.812;2023-04-07T09:29:35;10.25;;;4.80;;
71671;SDS011;67659;45.554;11.812;2023-04-07T09:32:02;8.63;;;4.55;;
71671;SDS011;67659;45.554;11.812;2023-04-07T09:34:35;9.93;;;4.93;;
71671;SDS011;67659;45.554;11.812;2023-04-07T09:37:02;12.73;;;5.23;;
71671;SDS011;67659;45.554;11.812;2023-04-07T09:39:30;11.65;;;5.43;;
71671;SDS011;67659;45.554;11.812;2023-04-07T09:41:56;15.10;;;4.95;;
71671;SDS011;67659;45.554;11.812;2023-04-07T09:44:23;11.95;;;4.80;;
71671;SDS011;67659;45.554;11.812;2023-04-07T09:46:50;11.90;;;4.90;;
71671;SDS011;67659;45.554;11.812;2023-04-07T09:49:17;9.70;;;4.70;;
71671;SDS011;67659;45.554;11.812;2023-04-07T09:51:57;12.95;;;5.63;;
71671;SDS011;67659;45.554;11.812;2023-04-07T09:54:36;10.57;;;5.00;;
71671;SDS011;67659;45.554;11.812;2023-04-07T09:57:04;11.77;;;4.90;;
71671;SDS011;67659;45.554;11.812;2023-04-07T09:59:32;11.25;;;4.97;;
71671;SDS011;67659;45.554;11.812;2023-04-07T10:01:59;13.80;;;5.77;;
71671;SDS011;67659;45.554;11.812;2023-04-07T10:04:25;12.45;;;5.70;;
71671;SDS011;67659;45.554;11.812;2023-04-07T10:06:52;14.40;;;5.72;;
71671;SDS011;67659;45.554;11.812;2023-04-07T10:09:18;11.63;;;5.53;;
71671;SDS011;67659;45.554;11.812;2023-04-07T10:11:46;11.20;;;5.50;;
71671;SDS011;67659;45.554;11.812;2023-04-07T10:14:14;13.37;;;5.90;;
71671;SDS011;67659;45.554;11.812;2023-04-07T10:16:41;14.38;;;4.85;;
71671;SDS011;67659;45.554;11.812;2023-04-07T10:19:08;10.20;;;4.97;;
71671;SDS011;67659;45.554;11.812;2023-04-07T10:21:35;10.57;;;5.05;;
71671;SDS011;67659;45.554;11.812;2023-04-07T10:27:02;10.57;;;4.90;;
71671;SDS011;67659;45.554;11.812;2023-04-07T10:29:35;9.90;;;4.85;;
71671;SDS011;67659;45.554;11.812;2023-04-07T10:32:05;11.90;;;4.70;;
71671;SDS011;67659;45.554;11.812;2023-04-07T10:37:13;12.00;;;4.80;;
71671;SDS011;67659;45.554;11.812;2023-04-07T10:39:42;9.20;;;4.23;;
71671;SDS011;67659;45.554;11.812;2023-04-07T10:45:05;11.68;;;5.35;;
71671;SDS011;67659;45.554;11.812;2023-04-07T10:47:33;10.02;;;5.05;;
71671;SDS011;67659;45.554;11.812;2023-04-07T10:50:16;10.65;;;4.55;;
71671;SDS011;67659;45.554;11.812;2023-04-07T10:52:43;8.20;;;4.53;;
71671;SDS011;67659;45.554;11.812;2023-04-07T11:03:25;12.73;;;5.10;;
71671;SDS011;67659;45.554;11.812;2023-04-07T11:06:02;13.97;;;5.40;;
71671;SDS011;67659;45.554;11.812;2023-04-07T11:08:33;14.15;;;6.13;;
71671;SDS011;67659;45.554;11.812;2023-04-07T11:10:59;16.50;;;9.82;;
71671;SDS011;67659;45.554;11.812;2023-04-07T11:13:25;17.25;;;10.68;;
71671;SDS011;67659;45.554;11.812;2023-04-07T11:15:51;22.10;;;11.50;;
71671;SDS011;67659;45.554;11.812;2023-04-07T11:18:18;31.55;;;13.77;;
71671;SDS011;67659;45.554;11.812;2023-04-07T11:23:16;39.95;;;14.20;;
71671;SDS011;67659;45.554;11.812;2023-04-07T11:25:43;27.50;;;13.27;;
71671;SDS011;67659;45.554;11.812;2023-04-07T11:28:12;24.60;;;12.43;;
71671;SDS011;67659;45.554;11.812;2023-04-07T11:30:42;21.58;;;12.23;;
71671;SDS011;67659;45.554;11.812;2023-04-07T11:33:20;24.60;;;12.05;;
71671;SDS011;67659;45.554;11.812;2023-04-07T11:35:51;20.05;;;11.30;;
71671;SDS011;67659;45.554;11.812;2023-04-07T11:38:20;23.87;;;12.73;;
71671;SDS011;67659;45.554;11.812;2023-04-07T11:40:47;26.35;;;13.75;;
71671;SDS011;67659;45.554;11.812;2023-04-07T11:43:20;24.85;;;12.32;;
71671;SDS011;67659;45.554;11.812;2023-04-07T11:46:03;27.17;;;13.55;;
71671;SDS011;67659;45.554;11.812;2023-04-07T11:48:33;32.08;;;12.68;;
71671;SDS011;67659;45.554;11.812;2023-04-07T11:51:00;19.83;;;11.00;;
71671;SDS011;67659;45.554;11.812;2023-04-07T11:53:30;21.35;;;10.32;;
71671;SDS011;67659;45.554;11.812;2023-04-07T11:58:37;27.25;;;10.23;;
71671;SDS011;67659;45.554;11.812;2023-04-07T12:01:04;21.05;;;10.48;;
71671;SDS011;67659;45.554;11.812;2023-04-07T12:03:33;21.17;;;10.27;;
71671;SDS011;67659;45.554;11.812;2023-04-07T12:06:01;19.45;;;9.40;;
71671;SDS011;67659;45.554;11.812;2023-04-07T12:08:37;20.30;;;9.82;;
71671;SDS011;67659;45.554;11.812;2023-04-07T12:11:07;18.75;;;8.98;;
71671;SDS011;67659;45.554;11.812;2023-04-07T12:13:37;16.33;;;9.32;;
71671;SDS011;67659;45.554;11.812;2023-04-07T12:16:03;17.67;;;8.77;;
71671;SDS011;67659;45.554;11.812;2023-04-07T12:18:29;17.13;;;8.88;;
71671;SDS011;67659;45.554;11.812;2023-04-07T12:20:55;18.13;;;9.40;;
71671;SDS011;67659;45.554;11.812;2023-04-07T12:23:23;17.35;;;9.52;;
71671;SDS011;67659;45.554;11.812;2023-04-07T12:25:49;17.98;;;9.60;;
71671;SDS011;67659;45.554;11.812;2023-04-07T12:28:16;15.43;;;8.60;;
71671;SDS011;67659;45.554;11.812;2023-04-07T12:30:42;19.80;;;9.55;;
71671;SDS011;67659;45.554;11.812;2023-04-07T12:33:08;17.40;;;9.13;;
71671;SDS011;67659;45.554;11.812;2023-04-07T12:35:34;20.43;;;10.37;;
71671;SDS011;67659;45.554;11.812;2023-04-07T12:38:00;21.40;;;9.57;;
71671;SDS011;67659;45.554;11.812;2023-04-07T12:40:26;19.38;;;9.05;;
71671;SDS011;67659;45.554;11.812;2023-04-07T12:42:53;19.35;;;8.85;;
71671;SDS011;67659;45.554;11.812;2023-04-07T12:45:22;15.70;;;8.40;;
71671;SDS011;67659;45.554;11.812;2023-04-07T12:47:48;20.40;;;10.20;;
71671;SDS011;67659;45.554;11.812;2023-04-07T12:50:14;17.75;;;9.60;;
71671;SDS011;67659;45.554;11.812;2023-04-07T12:52:40;18.42;;;9.18;;
71671;SDS011;67659;45.554;11.812;2023-04-07T12:55:06;17.90;;;9.17;;
71671;SDS011;67659;45.554;11.812;2023-04-07T12:57:32;17.13;;;8.80;;
71671;SDS011;67659;45.554;11.812;2023-04-07T12:59:58;17.95;;;9.32;;
71671;SDS011;67659;45.554;11.812;2023-04-07T13:02:24;23.27;;;10.40;;
71671;SDS011;67659;45.554;11.812;2023-04-07T13:04:49;19.08;;;9.55;;
71671;SDS011;67659;45.554;11.812;2023-04-07T13:07:15;21.73;;;10.05;;
71671;SDS011;67659;45.554;11.812;2023-04-07T13:09:41;24.93;;;10.57;;
71671;SDS011;67659;45.554;11.812;2023-04-07T13:12:10;21.80;;;10.32;;
71671;SDS011;67659;45.554;11.812;2023-04-07T13:14:37;24.88;;;10.10;;
71671;SDS011;67659;45.554;11.812;2023-04-07T13:17:04;26.40;;;9.98;;
71671;SDS011;67659;45.554;11.812;2023-04-07T13:19:32;31.17;;;13.32;;
71671;SDS011;67659;45.554;11.812;2023-04-07T13:21:58;34.03;;;13.20;;
71671;SDS011;67659;45.554;11.812;2023-04-07T13:24:24;36.90;;;14.18;;
71671;SDS011;67659;45.554;11.812;2023-04-07T13:26:51;32.08;;;13.18;;
71671;SDS011;67659;45.554;11.812;2023-04-07T13:29:17;43.42;;;14.43;;
71671;SDS011;67659;45.554;11.812;2023-04-07T13:31:46;27.27;;;14.00;;
71671;SDS011;67659;45.554;11.812;2023-04-07T13:34:13;27.23;;;13.07;;
71671;SDS011;67659;45.554;11.812;2023-04-07T13:36:39;25.58;;;12.68;;
71671;SDS011;67659;45.554;11.812;2023-04-07T13:39:05;21.35;;;11.10;;
71671;SDS011;67659;45.554;11.812;2023-04-07T13:41:32;24.67;;;10.82;;
71671;SDS011;67659;45.554;11.812;2023-04-07T13:43:57;18.20;;;9.77;;
71671;SDS011;67659;45.554;11.812;2023-04-07T13:46:25;18.20;;;9.63;;
71671;SDS011;67659;45.554;11.812;2023-04-07T13:48:51;21.77;;;9.48;;
71671;SDS011;67659;45.554;11.812;2023-04-07T13:51:17;22.10;;;9.70;;
71671;SDS011;67659;45.554;11.812;2023-04-07T13:53:43;20.75;;;10.27;;
71671;SDS011;67659;45.554;11.812;2023-04-07T13:56:09;21.17;;;10.13;;
71671;SDS011;67659;45.554;11.812;2023-04-07T13:58:36;19.15;;;10.38;;
71671;SDS011;67659;45.554;11.812;2023-04-07T14:01:02;22.50;;;10.13;;
71671;SDS011;67659;45.554;11.812;2023-04-07T14:03:28;38.03;;;10.77;;
71671;SDS011;67659;45.554;11.812;2023-04-07T14:05:54;22.23;;;11.47;;
71671;SDS011;67659;45.554;11.812;2023-04-07T14:08:24;18.85;;;10.20;;
71671;SDS011;67659;45.554;11.812;2023-04-07T14:10:51;18.13;;;10.18;;
71671;SDS011;67659;45.554;11.812;2023-04-07T14:13:17;19.13;;;9.23;;
71671;SDS011;67659;45.554;11.812;2023-04-07T14:15:43;16.33;;;9.20;;
71671;SDS011;67659;45.554;11.812;2023-04-07T14:18:09;19.00;;;9.10;;
71671;SDS011;67659;45.554;11.812;2023-04-07T14:20:35;19.70;;;9.23;;
71671;SDS011;67659;45.554;11.812;2023-04-07T14:23:01;18.38;;;8.68;;
71671;SDS011;67659;45.554;11.812;2023-04-07T14:25:27;18.27;;;9.07;;
71671;SDS011;67659;45.554;11.812;2023-04-07T14:27:53;18.50;;;8.20;;
71671;SDS011;67659;45.554;11.812;2023-04-07T14:30:18;17.15;;;8.60;;
71671;SDS011;67659;45.554;11.812;2023-04-07T14:32:44;16.27;;;8.30;;
71671;SDS011;67659;45.554;11.812;2023-04-07T14:35:10;18.58;;;8.68;;
71671;SDS011;67659;45.554;11.812;2023-04-07T14:37:37;19.25;;;9.57;;
71671;SDS011;67659;45.554;11.812;2023-04-07T14:40:03;21.43;;;9.43;;
71671;SDS011;67659;45.554;11.812;2023-04-07T14:42:30;22.88;;;9.75;;
71671;SDS011;67659;45.554;11.812;2023-04-07T14:44:56;21.90;;;9.38;;
71671;SDS011;67659;45.554;11.812;2023-04-07T14:47:23;22.15;;;9.15;;